Time;durP1;ratioP1;P1;durP2;ratioP2;P2;SDS_P1;SDS_P2;PMS_P1;PMS_P2;Temp;Humidity;BMP_temperature;BMP_pressure;BME280_temperature;BME280_humidity;BME280_pressure;Samples;Min_cycle;Max_cycle;Signal;HPM_P1;HPM_P2
2022/10/20 00:01:45;;;;;;;;;;;;;;;16.03;55.17;101009.31;5075616;28;1072;-53
2022/10/20 00:04:10;;;;;;;;;;;;;;;16.92;53.98;101003.97;5075156;28;1466;-54
2022/10/20 00:06:36;;;;;;;;;;;;;;;17.63;52.31;101009.88;5076056;28;1197;-51
2022/10/20 00:09:01;;;;;;;;;;;;;;;16.75;54.27;101017.91;5061391;28;1154;-53
2022/10/20 00:11:27;;;;;;;;;;;;;;;16.44;54.97;101014.19;5075062;28;1910;-52
2022/10/20 00:13:53;;;;;;;;;;;;;;;16.26;55.04;101015.47;5075712;28;1145;-53
2022/10/20 00:16:18;;;;;;;;;;;;;;;16.09;55.26;101012.91;5075125;28;1122;-54
2022/10/20 00:18:44;;;;;;;;;;;;;;;16.96;54.06;101020.75;5075417;28;1166;-54
2022/10/20 00:21:11;;;;;;;;;;;;;;;17.31;53.12;101019.19;5060133;28;1833;-54
2022/10/20 00:23:37;;;;;;;;;;;;;;;16.59;54.86;101010.69;5055209;28;1162;-54
2022/10/20 00:26:03;;;;;;;;;;;;;;;16.33;54.96;101010.56;5069310;28;1146;-54
2022/10/20 00:28:28;;;;;;;;;;;;;;;17.29;53.25;101015.88;5075489;28;1106;-54
2022/10/20 00:30:55;;;;;;;;;;;;;;;17.36;52.62;101019.19;5077472;28;1972;-55
2022/10/20 00:33:20;;;;;;;;;;;;;;;16.72;54.19;101023.94;5078991;28;1232;-54
2022/10/20 00:35:45;;;;;;;;;;;;;;;16.49;54.54;101027.13;5078300;28;1139;-54
2022/10/20 00:38:11;;;;;;;;;;;;;;;16.29;55.10;101028.66;5078655;28;1138;-55
2022/10/20 00:40:36;;;;;;;;;;;;;;;16.18;54.92;101027.75;5078786;28;1126;-54
2022/10/20 00:43:02;;;;;;;;;;;;;;;17.07;53.94;101029.84;5068639;28;1107;-54
2022/10/20 00:45:27;;;;;;;;;;;;;;;17.30;52.97;101039.50;5060994;28;1131;-54
2022/10/20 00:47:54;;;;;;;;;;;;;;;16.71;54.52;101026.94;5070132;28;1221;-55
2022/10/20 00:50:22;;;;;;;;;;;;;;;16.40;54.94;101024.88;5072765;28;1194;-54
2022/10/20 00:52:48;;;;;;;;;;;;;;;16.26;55.12;101023.69;5071328;28;2753;-53
2022/10/20 00:55:14;;;;;;;;;;;;;;;16.14;55.21;101039.53;5067944;28;1197;-53
2022/10/20 00:57:40;;;;;;;;;;;;;;;17.21;53.55;101035.66;5078628;28;1170;-52
2022/10/20 01:00:07;;;;;;;;;;;;;;;17.10;53.60;101037.56;5077208;28;1113;-54
2022/10/20 01:02:33;;;;;;;;;;;;;;;16.51;54.90;101036.75;5078844;28;1134;-54
2022/10/20 01:04:58;;;;;;;;;;;;;;;16.30;55.35;101040.44;5078649;28;1218;-52
2022/10/20 01:07:24;;;;;;;;;;;;;;;16.18;55.00;101041.47;5078543;28;1260;-53
2022/10/20 01:09:49;;;;;;;;;;;;;;;16.92;54.35;101041.63;5078468;28;1221;-53
2022/10/20 01:12:21;;;;;;;;;;;;;;;17.21;53.31;101050.22;5077904;28;1906;-52
2022/10/20 01:14:52;;;;;;;;;;;;;;;16.56;55.03;101055.16;5078398;28;1095;-52
2022/10/20 01:17:27;;;;;;;;;;;;;;;16.33;55.27;101050.91;5078605;28;1138;-52
2022/10/20 01:20:06;;;;;;;;;;;;;;;16.17;55.11;101058.22;5077550;28;1119;-54
2022/10/20 01:22:51;;;;;;;;;;;;;;;16.11;55.34;101064.75;5060840;28;1398;-54
2022/10/20 01:25:30;;;;;;;;;;;;;;;17.69;52.27;101077.50;5070668;28;930;-55
2022/10/20 01:28:01;;;;;;;;;;;;;;;16.80;54.39;101066.50;5077061;28;1163;-55
2022/10/20 01:30:27;;;;;;;;;;;;;;;16.46;55.18;101066.09;5078519;28;1138;-55
2022/10/20 01:33:02;;;;;;;;;;;;;;;16.23;55.38;101062.66;5074235;28;1988;-55
2022/10/20 01:35:46;;;;;;;;;;;;;;;16.14;55.20;101058.75;5078156;28;1182;-55
2022/10/20 01:38:11;;;;;;;;;;;;;;;16.05;55.24;101072.13;5077516;28;988;-55
2022/10/20 01:40:39;;;;;;;;;;;;;;;17.55;52.71;101066.22;5077485;28;1174;-55
2022/10/20 01:43:06;;;;;;;;;;;;;;;17.07;53.89;101063.63;5077329;28;1158;-55
2022/10/20 01:45:32;;;;;;;;;;;;;;;16.58;55.00;101070.25;5075277;28;1166;-56
2022/10/20 01:47:58;;;;;;;;;;;;;;;16.37;55.00;101063.03;5039954;28;1265;-55
2022/10/20 01:50:23;;;;;;;;;;;;;;;16.20;55.02;101066.75;5054550;28;1178;-55
2022/10/20 01:52:49;;;;;;;;;;;;;;;17.06;53.77;101067.47;5077889;28;1910;-55
2022/10/20 01:55:15;;;;;;;;;;;;;;;17.58;52.40;101064.84;5077661;28;1229;-55
2022/10/20 01:57:44;;;;;;;;;;;;;;;16.77;54.39;101069.81;5077992;28;1135;-54
2022/10/20 02:00:12;;;;;;;;;;;;;;;16.49;54.82;101071.03;5077009;28;1201;-54
2022/10/20 02:02:53;;;;;;;;;;;;;;;16.29;55.18;101067.06;5060026;28;1202;-55
2022/10/20 02:05:33;;;;;;;;;;;;;;;16.15;55.24;101069.44;5077529;28;1217;-54
2022/10/20 02:08:19;;;;;;;;;;;;;;;16.52;55.08;101076.00;5045656;28;1181;-53
2022/10/20 02:10:46;;;;;;;;;;;;;;;17.60;52.54;101076.41;5065299;28;1174;-54
2022/10/20 02:13:11;;;;;;;;;;;;;;;16.73;54.56;101083.25;5074276;28;1980;-54
2022/10/20 02:15:37;;;;;;;;;;;;;;;16.43;55.09;101090.22;5077039;28;1127;-52
2022/10/20 02:18:04;;;;;;;;;;;;;;;16.20;55.15;101088.69;5075740;28;1139;-54
2022/10/20 02:20:29;;;;;;;;;;;;;;;16.12;55.53;101089.19;5059498;28;1123;-56
2022/10/20 02:22:55;;;;;;;;;;;;;;;17.66;52.60;101105.56;5077263;28;1194;-56
2022/10/20 02:25:20;;;;;;;;;;;;;;;17.05;53.82;101092.47;5075010;28;1180;-56
2022/10/20 02:27:50;;;;;;;;;;;;;;;16.55;54.92;101094.66;5059725;28;1146;-56
2022/10/20 02:30:15;;;;;;;;;;;;;;;16.35;55.08;101093.44;5075728;28;1186;-57
2022/10/20 02:32:41;;;;;;;;;;;;;;;16.24;54.97;101102.69;5058941;28;1898;-55
2022/10/20 02:35:08;;;;;;;;;;;;;;;16.09;55.14;101108.91;5077032;28;1150;-55
2022/10/20 02:37:34;;;;;;;;;;;;;;;15.99;55.24;101106.06;5072613;28;941;-56
2022/10/20 02:39:59;;;;;;;;;;;;;;;15.89;55.48;101098.59;5076656;28;1114;-55
2022/10/20 02:42:25;;;;;;;;;;;;;;;17.20;53.67;101109.00;5062953;28;1142;-55
2022/10/20 02:44:50;;;;;;;;;;;;;;;17.08;53.76;101101.03;5076826;28;1201;-55
2022/10/20 02:47:16;;;;;;;;;;;;;;;16.54;54.98;101095.78;5076764;28;1091;-55
2022/10/20 02:49:42;;;;;;;;;;;;;;;16.28;55.46;101098.34;5076430;28;826;-55
2022/10/20 02:52:07;;;;;;;;;;;;;;;16.76;54.82;101096.44;5076876;28;1918;-54
2022/10/20 02:54:33;;;;;;;;;;;;;;;17.43;52.77;101102.22;5076650;28;1155;-54
2022/10/20 02:56:58;;;;;;;;;;;;;;;16.68;54.71;101107.94;5076275;28;1111;-55
2022/10/20 02:59:24;;;;;;;;;;;;;;;16.41;55.17;101125.34;5076404;28;1240;-55
2022/10/20 03:01:51;;;;;;;;;;;;;;;16.25;55.14;101112.59;5076394;28;1197;-55
2022/10/20 03:04:16;;;;;;;;;;;;;;;16.12;55.26;101121.25;5076192;28;1410;-56
2022/10/20 03:06:41;;;;;;;;;;;;;;;17.22;53.59;101127.97;5073417;28;2487;-54
2022/10/20 03:09:07;;;;;;;;;;;;;;;17.04;53.91;101130.13;5063506;28;2057;-54
2022/10/20 03:11:32;;;;;;;;;;;;;;;16.50;55.03;101122.09;5063611;28;2071;-55
2022/10/20 03:13:58;;;;;;;;;;;;;;;16.25;55.41;101115.34;5065974;28;1836;-56
2022/10/20 03:16:23;;;;;;;;;;;;;;;16.15;55.44;101123.50;5069185;28;1864;-55
2022/10/20 03:18:49;;;;;;;;;;;;;;;16.02;55.26;101122.00;5066906;28;2119;-57
2022/10/20 03:21:14;;;;;;;;;;;;;;;17.47;53.30;101129.16;5072709;28;1785;-54
2022/10/20 03:23:39;;;;;;;;;;;;;;;16.99;54.03;101119.09;5075691;28;1166;-56
2022/10/20 03:26:05;;;;;;;;;;;;;;;16.53;54.97;101127.88;5075584;28;1123;-56
2022/10/20 03:28:31;;;;;;;;;;;;;;;16.31;55.12;101127.19;5075989;28;1123;-56
2022/10/20 03:30:56;;;;;;;;;;;;;;;16.10;55.34;101145.41;5075548;28;1166;-58
2022/10/20 03:33:22;;;;;;;;;;;;;;;16.04;55.18;101133.56;5075725;28;1984;-61
2022/10/20 03:35:47;;;;;;;;;;;;;;;17.31;53.12;101145.63;5075938;28;1083;-61
2022/10/20 03:38:12;;;;;;;;;;;;;;;17.11;53.52;101146.38;5075594;28;1225;-62
2022/10/20 03:40:38;;;;;;;;;;;;;;;16.55;54.92;101147.66;5075558;28;1134;-61
2022/10/20 03:43:03;;;;;;;;;;;;;;;16.33;55.02;101156.03;5075788;28;1024;-62
2022/10/20 03:45:29;;;;;;;;;;;;;;;17.78;51.88;101149.28;5076013;28;1194;-62
2022/10/20 03:47:54;;;;;;;;;;;;;;;17.00;53.68;101148.25;5075519;28;1126;-61
2022/10/20 03:50:19;;;;;;;;;;;;;;;16.61;54.57;101156.78;5074716;28;2253;-57
2022/10/20 03:52:48;;;;;;;;;;;;;;;16.37;54.90;101157.16;5055519;28;1980;-59
2022/10/20 03:55:14;;;;;;;;;;;;;;;16.19;55.05;101165.78;5055279;28;1206;-58
2022/10/20 03:57:39;;;;;;;;;;;;;;;16.12;55.04;101160.50;5055870;28;1115;-58
2022/10/20 04:00:05;;;;;;;;;;;;;;;17.59;52.43;101174.56;5067517;28;1142;-62
2022/10/20 04:02:46;;;;;;;;;;;;;;;16.85;54.04;101165.41;5074928;28;1161;-58
2022/10/20 04:05:12;;;;;;;;;;;;;;;16.49;55.01;101178.09;5077108;28;1158;-63
2022/10/20 04:07:38;;;;;;;;;;;;;;;16.28;55.15;101179.84;5079520;28;1119;-61
2022/10/20 04:10:03;;;;;;;;;;;;;;;16.66;54.85;101189.75;5079650;28;1198;-61
2022/10/20 04:12:29;;;;;;;;;;;;;;;17.53;52.28;101183.91;5079924;28;1980;-56
2022/10/20 04:14:54;;;;;;;;;;;;;;;16.72;54.33;101191.44;5078989;28;1007;-60
2022/10/20 04:17:20;;;;;;;;;;;;;;;16.43;54.88;101188.22;5079123;28;1170;-60
2022/10/20 04:19:45;;;;;;;;;;;;;;;16.23;55.08;101189.69;5079405;28;1334;-60
2022/10/20 04:22:10;;;;;;;;;;;;;;;16.18;54.97;101191.56;5076068;28;2690;-59
2022/10/20 04:24:36;;;;;;;;;;;;;;;16.09;55.19;101193.97;5078869;28;1186;-60
2022/10/20 04:27:01;;;;;;;;;;;;;;;17.54;52.57;101195.72;5079346;28;957;-61
2022/10/20 04:29:27;;;;;;;;;;;;;;;16.87;53.96;101203.59;5079542;28;1209;-56
2022/10/20 04:31:52;;;;;;;;;;;;;;;16.48;54.73;101198.38;5079032;28;1988;-61
2022/10/20 04:34:18;;;;;;;;;;;;;;;16.26;55.18;101207.56;5079204;28;1115;-62
2022/10/20 04:36:43;;;;;;;;;;;;;;;16.26;55.26;101204.81;5079261;28;1106;-60
2022/10/20 04:39:08;;;;;;;;;;;;;;;17.57;52.20;101204.25;5078330;28;1055;-64
2022/10/20 04:41:34;;;;;;;;;;;;;;;16.73;54.35;101211.47;5078783;28;1190;-62
2022/10/20 04:43:59;;;;;;;;;;;;;;;16.41;55.06;101210.44;5078759;28;1004;-61
2022/10/20 04:46:25;;;;;;;;;;;;;;;16.23;55.03;101210.81;5078759;28;1114;-61
2022/10/20 04:48:51;;;;;;;;;;;;;;;16.15;55.02;101214.03;5078618;28;1186;-60
2022/10/20 04:51:16;;;;;;;;;;;;;;;16.18;55.36;101221.75;5070304;28;1922;-61
2022/10/20 04:53:42;;;;;;;;;;;;;;;17.57;52.23;101229.00;5058432;28;1131;-60
2022/10/20 04:56:09;;;;;;;;;;;;;;;16.73;54.30;101227.94;5058342;28;1221;-60
2022/10/20 04:58:34;;;;;;;;;;;;;;;16.40;55.10;101222.50;5058340;28;1134;-59
2022/10/20 05:01:03;;;;;;;;;;;;;;;16.20;55.31;101230.53;5058108;28;1312;-59
2022/10/20 05:03:29;;;;;;;;;;;;;;;16.09;55.10;101237.84;5069725;28;1068;-57
2022/10/20 05:05:54;;;;;;;;;;;;;;;17.31;53.09;101241.81;5078217;28;1075;-58
2022/10/20 05:08:19;;;;;;;;;;;;;;;17.12;53.43;101237.88;5060568;28;1456;-56
2022/10/20 05:10:45;;;;;;;;;;;;;;;16.57;54.52;101246.25;5075940;28;1194;-61
2022/10/20 05:13:10;;;;;;;;;;;;;;;16.32;54.93;101242.16;5069373;28;1901;-61
2022/10/20 05:15:36;;;;;;;;;;;;;;;16.17;55.34;101251.09;5077331;28;932;-60
2022/10/20 05:18:01;;;;;;;;;;;;;;;16.08;55.16;101249.91;5057335;28;1115;-59
2022/10/20 05:20:27;;;;;;;;;;;;;;;16.24;55.14;101261.84;5057925;28;2503;-61
2022/10/20 05:22:52;;;;;;;;;;;;;;;17.70;52.10;101263.44;5076314;28;1115;-62
2022/10/20 05:25:17;;;;;;;;;;;;;;;16.84;54.15;101264.56;5060420;28;1210;-57
2022/10/20 05:27:43;;;;;;;;;;;;;;;16.45;55.12;101273.84;5076209;28;944;-60
2022/10/20 05:30:08;;;;;;;;;;;;;;;16.28;55.07;101279.44;5078246;28;1166;-58
2022/10/20 05:32:34;;;;;;;;;;;;;;;16.13;55.29;101271.06;5077939;28;1965;-60
2022/10/20 05:34:59;;;;;;;;;;;;;;;16.06;55.51;101280.34;5078014;28;1086;-60
2022/10/20 05:37:25;;;;;;;;;;;;;;;17.37;52.81;101279.22;5057961;28;1103;-58
2022/10/20 05:39:50;;;;;;;;;;;;;;;16.34;53.66;101294.06;5069348;28;925;-56
2022/10/20 05:42:16;;;;;;;;;;;;;;;16.08;52.39;101288.31;5077650;28;1087;-58
2022/10/20 05:44:41;;;;;;;;;;;;;;;16.47;53.28;101295.56;5077825;28;1110;-56
2022/10/20 05:47:07;;;;;;;;;;;;;;;16.38;53.05;101296.03;5061709;28;1147;-57
2022/10/20 05:49:32;;;;;;;;;;;;;;;17.01;53.32;101309.25;5065313;28;1103;-56
2022/10/20 05:51:58;;;;;;;;;;;;;;;17.94;51.98;101298.75;5062774;28;1989;-59
2022/10/20 05:54:23;;;;;;;;;;;;;;;16.87;52.53;101297.84;5077086;28;1115;-56
2022/10/20 05:56:48;;;;;;;;;;;;;;;16.57;51.44;101314.88;5077735;28;1047;-58
2022/10/20 05:59:14;;;;;;;;;;;;;;;17.36;52.70;101310.56;5077122;28;1440;-60
2022/10/20 06:01:48;;;;;;;;;;;;;;;16.72;52.21;101316.94;5077506;28;1122;-64
2022/10/20 06:04:15;;;;;;;;;;;;;;;16.43;51.21;101326.25;5076677;28;957;-65
2022/10/20 06:06:40;;;;;;;;;;;;;;;16.37;50.08;101335.53;5077427;28;1099;-61
2022/10/20 06:09:06;;;;;;;;;;;;;;;17.17;51.49;101336.84;5077176;28;1103;-58
2022/10/20 06:11:32;;;;;;;;;;;;;;;16.58;51.46;101341.25;5077118;28;1956;-56
2022/10/20 06:13:57;;;;;;;;;;;;;;;17.74;51.59;101333.31;5076871;28;1174;-57
2022/10/20 06:16:23;;;;;;;;;;;;;;;17.36;52.64;101346.31;5076433;28;937;-60
2022/10/20 06:18:49;;;;;;;;;;;;;;;16.86;51.81;101353.84;5066376;28;1166;-58
2022/10/20 06:21:14;;;;;;;;;;;;;;;16.62;50.70;101350.63;5073976;28;2340;-59
2022/10/20 06:23:40;;;;;;;;;;;;;;;17.37;51.98;101372.69;5076706;28;1127;-57
2022/10/20 06:26:06;;;;;;;;;;;;;;;16.79;51.33;101355.16;5076609;28;1194;-57
2022/10/20 06:28:32;;;;;;;;;;;;;;;16.66;50.13;101372.88;5045438;28;1041;-55
2022/10/20 06:30:57;;;;;;;;;;;;;;;16.51;49.23;101363.41;5076555;28;1194;-56
2022/10/20 06:33:23;;;;;;;;;;;;;;;16.38;48.79;101372.91;5058339;28;1982;-55
2022/10/20 06:35:48;;;;;;;;;;;;;;;17.47;50.83;101373.84;5076508;28;1182;-57
2022/10/20 06:38:14;;;;;;;;;;;;;;;16.65;51.04;101372.06;5076345;28;1118;-56
2022/10/20 06:40:39;;;;;;;;;;;;;;;18.19;51.33;101383.34;5076385;28;1075;-55
2022/10/20 06:43:05;;;;;;;;;;;;;;;17.85;52.21;101371.88;5076770;28;1082;-56
2022/10/20 06:45:30;;;;;;;;;;;;;;;17.16;51.25;101388.19;5076656;28;1229;-57
2022/10/20 06:47:55;;;;;;;;;;;;;;;16.96;50.22;101390.75;5067963;28;1111;-56
2022/10/20 06:50:21;;;;;;;;;;;;;;;16.83;49.18;101378.25;5056722;28;2327;-56
2022/10/20 06:52:46;;;;;;;;;;;;;;;16.65;48.92;101394.03;5062540;28;1910;-56
2022/10/20 06:55:12;;;;;;;;;;;;;;;18.00;51.22;101373.91;5076813;28;1197;-57
2022/10/20 06:57:37;;;;;;;;;;;;;;;17.19;51.05;101381.34;5076658;28;1157;-57
2022/10/20 07:00:03;;;;;;;;;;;;;;;16.90;50.07;101406.38;5075995;28;1134;-57
2022/10/20 07:02:28;;;;;;;;;;;;;;;17.67;50.79;101396.00;5060506;28;1159;-55
2022/10/20 07:04:54;;;;;;;;;;;;;;;17.07;50.39;101393.34;5076010;28;1067;-59
2022/10/20 07:07:19;;;;;;;;;;;;;;;16.85;49.54;101425.53;5075892;28;1190;-60
2022/10/20 07:09:45;;;;;;;;;;;;;;;17.78;50.33;101405.09;5076145;28;1174;-60
2022/10/20 07:12:10;;;;;;;;;;;;;;;17.08;50.49;101399.66;5076321;28;1921;-64
2022/10/20 07:14:36;;;;;;;;;;;;;;;16.93;50.17;101428.66;5075691;28;1107;-65
2022/10/20 07:17:02;;;;;;;;;;;;;;;17.62;50.85;101406.94;5076171;28;1115;-63
2022/10/20 07:19:27;;;;;;;;;;;;;;;17.07;50.35;101412.59;5076152;28;1127;-63
2022/10/20 07:21:53;;;;;;;;;;;;;;;16.87;49.47;101417.84;5070784;28;2109;-63
2022/10/20 07:24:18;;;;;;;;;;;;;;;16.95;49.60;101419.34;5076021;28;1186;-58
2022/10/20 07:26:43;;;;;;;;;;;;;;;17.60;50.55;101415.47;5060409;28;1100;-60
2022/10/20 07:29:09;;;;;;;;;;;;;;;17.01;50.39;101427.38;5067467;28;1138;-59
2022/10/20 07:31:44;;;;;;;;;;;;;;;16.90;49.28;101425.59;5055831;28;1981;-59
2022/10/20 07:34:10;;;;;;;;;;;;;;;16.68;48.67;101423.72;5062948;28;1084;-60
2022/10/20 07:36:36;;;;;;;;;;;;;;;16.63;47.98;101418.16;5075555;28;1194;-59
2022/10/20 07:39:03;;;;;;;;;;;;;;;17.50;49.31;101434.66;5071953;28;1201;-58
2022/10/20 07:41:28;;;;;;;;;;;;;;;16.96;50.11;101431.97;5066974;28;1087;-59
2022/10/20 07:43:54;;;;;;;;;;;;;;;17.35;50.24;101440.84;5075973;28;1079;-60
2022/10/20 07:46:19;;;;;;;;;;;;;;;17.83;50.50;101440.09;5075851;28;1095;-59
2022/10/20 07:48:45;;;;;;;;;;;;;;;17.20;50.09;101443.47;5075521;28;1155;-59
2022/10/20 07:51:25;;;;;;;;;;;;;;;16.91;49.77;101443.75;5075421;28;1910;-59
2022/10/20 07:53:53;;;;;;;;;;;;;;;16.81;49.69;101438.94;5058292;28;1191;-59
2022/10/20 07:56:19;;;;;;;;;;;;;;;17.28;50.54;101440.25;5075537;28;1182;-61
2022/10/20 07:58:44;;;;;;;;;;;;;;;16.99;49.49;101448.78;5062240;28;1102;-60
2022/10/20 08:01:10;;;;;;;;;;;;;;;16.73;48.71;101448.50;5061023;28;1095;-62
2022/10/20 08:03:35;;;;;;;;;;;;;;;17.33;49.65;101448.53;5075291;28;1142;-62
2022/10/20 08:06:01;;;;;;;;;;;;;;;16.89;49.38;101451.44;5075491;28;1107;-62
2022/10/20 08:08:26;;;;;;;;;;;;;;;16.68;48.67;101458.59;5075629;28;1138;-61
2022/10/20 08:10:52;;;;;;;;;;;;;;;17.61;49.43;101454.78;5075903;28;1169;-62
2022/10/20 08:13:17;;;;;;;;;;;;;;;16.91;49.69;101446.50;5075472;28;1910;-58
2022/10/20 08:15:43;;;;;;;;;;;;;;;16.67;49.15;101456.94;5068891;28;1211;-56
2022/10/20 08:18:08;;;;;;;;;;;;;;;17.65;49.14;101460.59;5074767;28;1186;-57
2022/10/20 08:20:33;;;;;;;;;;;;;;;17.00;49.35;101466.94;5074886;28;1952;-56
2022/10/20 08:22:59;;;;;;;;;;;;;;;17.61;49.28;101468.53;5075451;28;1142;-56
2022/10/20 08:25:24;;;;;;;;;;;;;;;17.55;50.03;101458.59;5075434;28;1217;-56
2022/10/20 08:27:50;;;;;;;;;;;;;;;17.04;49.85;101484.56;5074622;28;1153;-56
2022/10/20 08:30:15;;;;;;;;;;;;;;;16.97;48.88;101478.44;5075103;28;1209;-56
2022/10/20 08:32:41;;;;;;;;;;;;;;;16.76;48.14;101483.69;5075624;28;1906;-56
2022/10/20 08:35:06;;;;;;;;;;;;;;;17.63;49.37;101496.63;5074990;28;1103;-56
2022/10/20 08:37:32;;;;;;;;;;;;;;;17.00;49.66;101483.41;5074996;28;1118;-55
2022/10/20 08:39:57;;;;;;;;;;;;;;;16.85;48.83;101507.94;5074520;28;1142;-56
2022/10/20 08:42:23;;;;;;;;;;;;;;;16.68;48.02;101500.59;5075189;28;1115;-55
2022/10/20 08:44:48;;;;;;;;;;;;;;;17.51;48.50;101505.03;5057378;28;1107;-57
2022/10/20 08:47:17;;;;;;;;;;;;;;;16.86;49.30;101504.13;5075538;28;1205;-58
2022/10/20 08:49:42;;;;;;;;;;;;;;;16.55;48.76;101514.72;5075195;28;1107;-55
2022/10/20 08:52:08;;;;;;;;;;;;;;;17.52;49.03;101522.38;5057047;28;2407;-56
2022/10/20 08:54:34;;;;;;;;;;;;;;;16.88;49.17;101513.75;5060849;28;1119;-56
2022/10/20 08:56:59;;;;;;;;;;;;;;;18.18;48.82;101515.72;5078439;28;1198;-56
2022/10/20 08:59:28;;;;;;;;;;;;;;;17.58;49.95;101538.63;5078096;28;1149;-55
2022/10/20 09:01:54;;;;;;;;;;;;;;;17.14;49.44;101532.44;5078304;28;1216;-56
2022/10/20 09:04:24;;;;;;;;;;;;;;;17.20;49.67;101537.75;5063827;28;1126;-55
2022/10/20 09:06:51;;;;;;;;;;;;;;;17.27;50.03;101532.03;5078495;28;1131;-57
2022/10/20 09:09:16;;;;;;;;;;;;;;;17.03;48.95;101531.53;5078646;28;1178;-57
2022/10/20 09:11:43;;;;;;;;;;;;;;;17.93;49.44;101528.22;5076466;28;1909;-58
2022/10/20 09:14:09;;;;;;;;;;;;;;;17.24;49.46;101536.13;5078171;28;1205;-57
2022/10/20 09:16:37;;;;;;;;;;;;;;;16.99;48.75;101533.94;5073625;28;891;-57
2022/10/20 09:19:03;;;;;;;;;;;;;;;16.87;47.92;101541.47;5067872;28;1201;-56
2022/10/20 09:21:30;;;;;;;;;;;;;;;16.72;48.15;101540.19;5072945;28;2257;-59
2022/10/20 09:23:59;;;;;;;;;;;;;;;17.37;48.90;101545.06;5059982;28;1159;-57
2022/10/20 09:26:33;;;;;;;;;;;;;;;16.93;48.62;101541.31;5060332;28;1179;-56
2022/10/20 09:29:03;;;;;;;;;;;;;;;16.84;47.96;101539.25;5065349;28;844;-57
2022/10/20 09:31:48;;;;;;;;;;;;;;;17.75;48.66;101535.78;5074933;28;1901;-57
2022/10/20 09:34:20;;;;;;;;;;;;;;;16.93;48.92;101538.56;5068850;28;1083;-57
2022/10/20 09:36:45;;;;;;;;;;;;;;;16.91;47.88;101545.41;5077532;28;1201;-56
2022/10/20 09:39:18;;;;;;;;;;;;;;;16.73;47.46;101546.53;5060134;28;1162;-57
2022/10/20 09:41:43;;;;;;;;;;;;;;;16.56;47.50;101541.09;5077450;28;936;-56
2022/10/20 09:44:13;;;;;;;;;;;;;;;17.54;48.30;101540.25;5058178;28;996;-57
2022/10/20 09:46:42;;;;;;;;;;;;;;;16.81;48.66;101550.75;5040340;28;1123;-57
2022/10/20 09:49:07;;;;;;;;;;;;;;;16.67;48.09;101550.28;5044465;28;1103;-56
2022/10/20 09:51:32;;;;;;;;;;;;;;;17.54;48.65;101543.00;5043154;28;1902;-57
2022/10/20 09:54:02;;;;;;;;;;;;;;;16.96;48.69;101548.22;5056431;28;945;-56
2022/10/20 09:56:34;;;;;;;;;;;;;;;17.92;48.89;101537.56;5070821;28;1119;-58
2022/10/20 09:59:00;;;;;;;;;;;;;;;17.32;49.67;101531.25;5058943;28;1198;-57
2022/10/20 10:01:26;;;;;;;;;;;;;;;17.03;48.83;101526.84;5077322;28;1098;-55
2022/10/20 10:03:52;;;;;;;;;;;;;;;17.90;48.69;101528.72;5076116;28;1119;-57
2022/10/20 10:06:20;;;;;;;;;;;;;;;17.22;49.09;101523.72;5077789;28;1158;-57
2022/10/20 10:08:45;;;;;;;;;;;;;;;16.93;48.37;101527.56;5077184;28;1138;-59
2022/10/20 10:11:14;;;;;;;;;;;;;;;17.77;48.91;101519.81;5076925;28;1339;-57
2022/10/20 10:13:41;;;;;;;;;;;;;;;17.10;49.13;101521.97;5075757;28;1151;-56
2022/10/20 10:16:07;;;;;;;;;;;;;;;17.25;48.90;101524.06;5056672;28;1221;-60
2022/10/20 10:18:33;;;;;;;;;;;;;;;17.62;49.01;101525.22;5047717;28;1092;-60
2022/10/20 10:20:59;;;;;;;;;;;;;;;17.19;49.01;101524.25;5076881;28;2518;-56
2022/10/20 10:23:25;;;;;;;;;;;;;;;16.97;48.27;101527.91;5070032;28;1173;-57
2022/10/20 10:25:51;;;;;;;;;;;;;;;16.83;47.87;101529.34;5057042;28;1201;-56
2022/10/20 10:28:25;;;;;;;;;;;;;;;17.44;48.45;101524.50;5056829;28;1209;-55
2022/10/20 10:31:03;;;;;;;;;;;;;;;17.20;48.72;101520.44;5068718;28;1201;-56
2022/10/20 10:33:29;;;;;;;;;;;;;;;16.93;48.23;101515.75;5076407;28;1992;-55
2022/10/20 10:35:54;;;;;;;;;;;;;;;16.82;47.58;101522.19;5069068;28;1194;-57
2022/10/20 10:38:19;;;;;;;;;;;;;;;17.82;47.94;101499.78;5069978;28;1178;-55
2022/10/20 10:41:03;;;;;;;;;;;;;;;17.13;48.68;101508.81;5062049;28;1111;-57
2022/10/20 10:43:49;;;;;;;;;;;;;;;16.90;48.02;101508.84;5076979;28;1079;-57
2022/10/20 10:46:40;;;;;;;;;;;;;;;17.72;48.49;101507.97;5034243;28;1247;-56
2022/10/20 10:49:06;;;;;;;;;;;;;;;17.01;48.53;101511.72;5038637;28;1416;-54
2022/10/20 10:51:50;;;;;;;;;;;;;;;16.89;47.99;101514.63;5066583;28;2392;-57
2022/10/20 10:54:24;;;;;;;;;;;;;;;16.80;47.42;101505.13;5074662;28;1155;-55
2022/10/20 10:56:50;;;;;;;;;;;;;;;17.67;47.91;101505.16;5076169;28;1162;-56
2022/10/20 10:59:29;;;;;;;;;;;;;;;17.01;48.54;101511.72;5075913;28;1374;-57
2022/10/20 11:01:57;;;;;;;;;;;;;;;18.23;48.03;101499.22;5058218;28;1131;-57
2022/10/20 11:04:35;;;;;;;;;;;;;;;17.85;48.87;101503.91;5072169;28;1142;-56
2022/10/20 11:07:19;;;;;;;;;;;;;;;18.25;49.05;101508.06;5067603;28;1134;-56
2022/10/20 11:09:53;;;;;;;;;;;;;;;16.11;55.55;101506.47;5062356;28;1092;-57
2022/10/20 11:12:45;;;;;;;;;;;;;;;17.74;52.37;101501.09;5075905;28;1901;-57
2022/10/20 11:15:23;;;;;;;;;;;;;;;18.10;52.03;101498.63;5033970;28;1151;-57
2022/10/20 11:17:48;;;;;;;;;;;;;;;16.50;56.57;101495.44;5066500;28;1139;-58
2022/10/20 11:20:14;;;;;;;;;;;;;;;19.14;50.20;101497.94;5076033;28;1121;-57
2022/10/20 11:22:45;;;;;;;;;;;;;;;15.40;59.76;101499.56;5056543;28;2446;-58
2022/10/20 11:25:30;;;;;;;;;;;;;;;16.83;53.02;101485.38;5038852;28;1206;-58
2022/10/20 11:27:55;;;;;;;;;;;;;;;17.13;49.96;101484.09;5071559;28;1091;-59
2022/10/20 11:30:21;;;;;;;;;;;;;;;16.96;49.47;101498.75;5075523;28;889;-59
2022/10/20 11:32:52;;;;;;;;;;;;;;;16.88;48.76;101496.44;5061692;28;1922;-59
2022/10/20 11:35:33;;;;;;;;;;;;;;;16.82;48.03;101492.81;5072942;28;1124;-58
2022/10/20 11:38:06;;;;;;;;;;;;;;;16.71;47.69;101491.84;5075722;28;1123;-57
2022/10/20 11:40:34;;;;;;;;;;;;;;;17.37;49.77;101498.31;5060635;28;1102;-57
2022/10/20 11:43:03;;;;;;;;;;;;;;;17.00;49.23;101505.41;5066040;28;1009;-57
2022/10/20 11:45:29;;;;;;;;;;;;;;;16.84;48.47;101503.53;5075571;28;1252;-57
2022/10/20 11:47:57;;;;;;;;;;;;;;;16.85;47.58;101497.78;5075757;28;1098;-58
2022/10/20 11:50:22;;;;;;;;;;;;;;;17.40;49.03;101498.66;5062910;28;1816;-58
2022/10/20 11:53:20;;;;;;;;;;;;;;;17.10;49.18;101496.44;5061985;28;1905;-60
2022/10/20 11:55:51;;;;;;;;;;;;;;;16.80;48.58;101497.72;5035122;28;1458;-58
2022/10/20 11:58:35;;;;;;;;;;;;;;;17.77;49.67;101497.81;5075459;28;1095;-57
2022/10/20 12:01:19;;;;;;;;;;;;;;;17.04;49.82;101500.19;5071193;28;1067;-57
2022/10/20 12:03:51;;;;;;;;;;;;;;;17.66;49.45;101496.09;5068495;28;1213;-57
2022/10/20 12:06:19;;;;;;;;;;;;;;;17.24;49.84;101496.84;5061293;28;1209;-57
2022/10/20 12:09:03;;;;;;;;;;;;;;;17.00;49.07;101497.16;5075551;28;1134;-57
2022/10/20 12:11:29;;;;;;;;;;;;;;;16.94;48.20;101487.19;5061726;28;1898;-57
2022/10/20 12:13:57;;;;;;;;;;;;;;;16.79;47.69;101492.47;5075415;28;1190;-57
2022/10/20 12:16:41;;;;;;;;;;;;;;;16.72;47.15;101493.53;5075190;28;1162;-57
2022/10/20 12:19:17;;;;;;;;;;;;;;;16.81;47.53;101498.56;5074784;28;1075;-56
2022/10/20 12:21:52;;;;;;;;;;;;;;;17.20;48.93;101509.44;5062159;28;2568;-58
2022/10/20 12:24:33;;;;;;;;;;;;;;;16.83;48.52;101502.72;5075394;28;1258;-56
2022/10/20 12:27:01;;;;;;;;;;;;;;;16.63;48.05;101508.78;5066154;28;1131;-57
2022/10/20 12:29:29;;;;;;;;;;;;;;;16.69;47.18;101510.50;5079465;28;1213;-57
2022/10/20 12:32:14;;;;;;;;;;;;;;;17.80;47.93;101504.72;5079056;28;1901;-58
2022/10/20 12:34:39;;;;;;;;;;;;;;;16.93;48.83;101504.78;5078718;28;1154;-57
2022/10/20 12:37:06;;;;;;;;;;;;;;;16.72;48.17;101510.00;5078848;28;1095;-57
2022/10/20 12:39:31;;;;;;;;;;;;;;;16.66;47.47;101510.19;5079113;28;1134;-57
2022/10/20 12:41:58;;;;;;;;;;;;;;;17.14;48.03;101510.47;5078670;28;1174;-57
2022/10/20 12:44:23;;;;;;;;;;;;;;;17.06;48.78;101509.84;5079272;28;1220;-56
2022/10/20 12:46:53;;;;;;;;;;;;;;;16.81;48.29;101513.09;5078866;28;1150;-56
2022/10/20 12:49:35;;;;;;;;;;;;;;;16.66;47.51;101516.53;5077482;28;1123;-56
2022/10/20 12:52:00;;;;;;;;;;;;;;;17.50;47.87;101510.81;5064729;28;1975;-56